Time;durP1;ratioP1;P1;durP2;ratioP2;P2;SDS_P1;SDS_P2;PMS_P1;PMS_P2;Temp;Humidity;BMP_temperature;BMP_pressure;BME280_temperature;BME280_humidity;BME280_pressure;Samples;Min_cycle;Max_cycle;Signal;HPM_P1;HPM_P2
2023/02/22 00:00:41;;;;;;;11.97;3.43;;;8.90;99.90;;;;;;5109945;28;20209;-71
2023/02/22 00:03:11;;;;;;;11.50;3.10;;;8.90;99.90;;;;;;5110000;28;20950;-70
2023/02/22 00:05:39;;;;;;;17.67;3.60;;;8.90;99.90;;;;;;5109843;28;20254;-72
2023/02/22 00:08:08;;;;;;;10.80;2.87;;;8.90;99.90;;;;;;5109587;28;20760;-72
2023/02/22 00:10:38;;;;;;;11.63;2.87;;;8.90;99.90;;;;;;5110196;28;20624;-71
2023/02/22 00:13:07;;;;;;;11.13;3.40;;;8.90;99.90;;;;;;5109841;28;20559;-72
2023/02/22 00:15:35;;;;;;;13.63;2.90;;;8.90;99.90;;;;;;5109503;28;20328;-71
2023/02/22 00:18:04;;;;;;;16.30;3.60;;;8.80;99.90;;;;;;5109818;28;20210;-72
2023/02/22 00:20:31;;;;;;;6.53;2.83;;;8.70;99.90;;;;;;5109907;28;20263;-72
2023/02/22 00:23:00;;;;;;;11.87;3.43;;;8.70;99.90;;;;;;5106023;27;20245;-71
2023/02/22 00:25:27;;;;;;;11.43;3.50;;;8.70;99.90;;;;;;5099123;28;20243;-72
2023/02/22 00:27:55;;;;;;;9.23;3.17;;;8.70;99.90;;;;;;5099270;28;20226;-71
2023/02/22 00:30:25;;;;;;;13.20;3.57;;;8.70;99.90;;;;;;5093170;28;20614;-72
2023/02/22 00:32:54;;;;;;;11.03;2.60;;;8.70;99.90;;;;;;5113638;27;20262;-72
2023/02/22 00:35:23;;;;;;;13.57;3.77;;;8.70;99.90;;;;;;5109788;28;20307;-72
2023/02/22 00:37:51;;;;;;;15.13;3.90;;;8.70;99.90;;;;;;5109028;28;20730;-72
2023/02/22 00:40:21;;;;;;;11.27;3.43;;;8.70;99.90;;;;;;5109609;28;20289;-71
2023/02/22 00:42:48;;;;;;;13.20;3.90;;;8.70;99.90;;;;;;5098178;28;20199;-71
2023/02/22 00:45:17;;;;;;;9.77;3.27;;;8.60;99.90;;;;;;5108791;28;20246;-72
2023/02/22 00:47:44;;;;;;;14.37;2.83;;;8.60;99.90;;;;;;5109250;28;20198;-71
2023/02/22 00:50:11;;;;;;;9.20;3.33;;;8.60;99.90;;;;;;5126646;27;20241;-71
2023/02/22 00:52:39;;;;;;;8.70;2.87;;;8.60;99.90;;;;;;5100216;28;20303;-72
2023/02/22 00:55:08;;;;;;;11.60;3.37;;;8.60;99.90;;;;;;5097902;28;20775;-71
2023/02/22 00:57:37;;;;;;;12.80;3.40;;;8.60;99.90;;;;;;5109089;28;20285;-70
2023/02/22 01:00:10;;;;;;;12.70;3.47;;;8.60;99.90;;;;;;5108856;28;20297;-71
2023/02/22 01:02:38;;;;;;;11.23;3.23;;;8.50;99.90;;;;;;5108858;28;20251;-71
2023/02/22 01:05:05;;;;;;;8.33;3.07;;;8.50;99.90;;;;;;5107931;28;20206;-70
2023/02/22 01:07:33;;;;;;;13.20;3.20;;;8.50;99.90;;;;;;5108718;28;20245;-71
2023/02/22 01:10:00;;;;;;;10.60;3.70;;;8.50;99.90;;;;;;5108555;28;20198;-75
2023/02/22 01:12:27;;;;;;;8.67;2.93;;;8.50;99.90;;;;;;5108260;28;20289;-71
2023/02/22 01:14:57;;;;;;;10.47;2.80;;;8.50;99.90;;;;;;5108273;28;20293;-71
2023/02/22 01:17:24;;;;;;;10.33;2.97;;;8.40;99.90;;;;;;5108518;28;20210;-70
2023/02/22 01:19:51;;;;;;;13.93;3.73;;;8.40;99.90;;;;;;5124160;27;20209;-70
2023/02/22 01:22:18;;;;;;;7.73;3.37;;;8.40;99.90;;;;;;5120202;27;20297;-70
2023/02/22 01:24:45;;;;;;;10.63;2.47;;;8.30;99.90;;;;;;5108383;28;20217;-70
2023/02/22 01:27:12;;;;;;;10.27;3.20;;;8.30;99.90;;;;;;5107848;28;20297;-70
2023/02/22 01:29:40;;;;;;;9.97;3.00;;;8.30;99.90;;;;;;5108019;28;20308;-69
2023/02/22 01:32:10;;;;;;;9.10;3.47;;;8.30;99.90;;;;;;5100937;28;20281;-69
2023/02/22 01:34:38;;;;;;;9.90;2.67;;;8.20;99.90;;;;;;5087979;28;20463;-69
2023/02/22 01:37:06;;;;;;;8.40;2.77;;;8.20;99.90;;;;;;5100653;28;20259;-70
2023/02/22 01:39:33;;;;;;;12.50;3.10;;;8.20;99.90;;;;;;5107431;28;20690;-69
2023/02/22 01:42:00;;;;;;;11.80;2.90;;;8.10;99.90;;;;;;5102422;28;20295;-72
2023/02/22 01:44:30;;;;;;;13.70;3.30;;;8.10;99.90;;;;;;5100933;28;20820;-72
2023/02/22 01:46:58;;;;;;;6.97;2.60;;;8.10;99.90;;;;;;5108021;28;20664;-71
2023/02/22 01:49:31;;;;;;;8.20;2.70;;;8.10;99.90;;;;;;5119883;27;20292;-71
2023/02/22 01:52:00;;;;;;;10.27;3.10;;;8.10;99.90;;;;;;5113752;27;20234;-71
2023/02/22 01:54:31;;;;;;;7.63;3.00;;;8.10;99.90;;;;;;5107792;28;20201;-71
2023/02/22 01:57:07;;;;;;;11.20;3.40;;;8.00;99.90;;;;;;5107954;28;20226;-71
2023/02/22 01:59:38;;;;;;;9.17;3.00;;;8.10;99.90;;;;;;5108176;28;20270;-71
2023/02/22 02:02:06;;;;;;;9.70;2.93;;;8.10;99.90;;;;;;5101862;28;20285;-71
2023/02/22 02:04:35;;;;;;;10.17;3.00;;;8.10;99.90;;;;;;5087830;28;20326;-71
2023/02/22 02:07:05;;;;;;;12.00;3.27;;;8.10;99.90;;;;;;5087583;28;20245;-71
2023/02/22 02:09:36;;;;;;;11.40;3.43;;;8.10;99.90;;;;;;5091354;28;20194;-71
2023/02/22 02:12:05;;;;;;;11.17;2.93;;;8.00;99.90;;;;;;5108015;28;20277;-71
2023/02/22 02:14:32;;;;;;;13.23;2.87;;;8.00;99.90;;;;;;5107891;28;20667;-71
2023/02/22 02:17:01;;;;;;;13.47;3.07;;;8.00;99.90;;;;;;5110492;28;20791;-71
2023/02/22 02:19:39;;;;;;;6.90;2.80;;;8.00;99.90;;;;;;5112361;28;20214;-71
2023/02/22 02:22:31;;;;;;;11.10;2.93;;;8.00;99.90;;;;;;5111894;28;20281;-71
2023/02/22 02:25:33;;;;;;;10.10;2.77;;;8.00;99.90;;;;;;5121917;27;20296;-71
2023/02/22 02:28:42;;;;;;;9.80;2.80;;;7.90;99.90;;;;;;5111880;28;20285;-71
2023/02/22 02:31:29;;;;;;;13.93;2.87;;;7.90;99.90;;;;;;5111643;28;20283;-71
2023/02/22 02:34:00;;;;;;;8.10;2.60;;;7.90;99.90;;;;;;5091433;28;20251;-71
2023/02/22 02:36:33;;;;;;;9.30;2.73;;;7.90;99.90;;;;;;5091173;28;20269;-71
2023/02/22 02:39:09;;;;;;;9.37;2.60;;;7.90;99.90;;;;;;5090941;28;20275;-71
2023/02/22 02:41:39;;;;;;;12.27;2.83;;;7.90;99.90;;;;;;5105022;28;20736;-71
2023/02/22 02:44:13;;;;;;;9.73;2.57;;;7.90;99.90;;;;;;5104070;27;20198;-71
2023/02/22 02:46:47;;;;;;;9.20;3.00;;;7.90;99.90;;;;;;5111616;28;20287;-70
2023/02/22 02:49:21;;;;;;;10.93;3.13;;;7.90;99.90;;;;;;5121820;27;20244;-71
2023/02/22 02:51:52;;;;;;;7.70;2.57;;;7.80;99.90;;;;;;5129602;27;20193;-71
2023/02/22 02:54:20;;;;;;;9.93;2.90;;;7.80;99.90;;;;;;5111048;28;20857;-71
2023/02/22 02:56:48;;;;;;;11.03;2.80;;;7.90;99.90;;;;;;5111405;28;20233;-70
2023/02/22 02:59:26;;;;;;;7.13;2.40;;;7.80;99.90;;;;;;5110947;28;20650;-71
2023/02/22 03:02:05;;;;;;;6.30;2.50;;;7.80;99.90;;;;;;5109855;28;20208;-71
2023/02/22 03:04:50;;;;;;;7.90;2.73;;;7.80;99.90;;;;;;5111204;28;20289;-72
2023/02/22 03:07:34;;;;;;;10.07;3.00;;;7.80;99.90;;;;;;5111201;28;20623;-71
2023/02/22 03:10:18;;;;;;;7.60;2.60;;;7.80;99.90;;;;;;5111006;28;20232;-72
2023/02/22 03:12:52;;;;;;;11.73;3.10;;;7.80;99.90;;;;;;5111088;28;20218;-72
2023/02/22 03:15:35;;;;;;;16.07;3.57;;;7.80;99.90;;;;;;5110625;27;20234;-72
2023/02/22 03:18:06;;;;;;;11.30;2.90;;;7.80;99.90;;;;;;5110781;28;20209;-71
2023/02/22 03:20:44;;;;;;;10.57;3.93;;;7.80;99.90;;;;;;5120132;27;20198;-72
2023/02/22 03:23:19;;;;;;;8.63;2.73;;;7.80;99.90;;;;;;5098313;27;20218;-72
2023/02/22 03:25:51;;;;;;;11.70;2.77;;;7.80;99.90;;;;;;5090722;28;20675;-72
2023/02/22 03:28:25;;;;;;;11.83;2.77;;;7.80;99.90;;;;;;5104797;28;20297;-71
2023/02/22 03:30:57;;;;;;;15.00;3.00;;;7.80;99.90;;;;;;5100152;28;20214;-72
2023/02/22 03:33:32;;;;;;;8.00;2.90;;;7.80;99.90;;;;;;5087724;28;20244;-71
2023/02/22 03:36:05;;;;;;;10.27;2.80;;;7.80;99.90;;;;;;5087264;28;20214;-72
2023/02/22 03:38:34;;;;;;;15.30;3.20;;;7.80;99.90;;;;;;5087565;28;20282;-72
2023/02/22 03:41:02;;;;;;;19.30;3.00;;;7.80;99.90;;;;;;5106034;28;20301;-71
2023/02/22 03:43:32;;;;;;;7.37;2.80;;;7.80;99.90;;;;;;5099824;28;20201;-73
2023/02/22 03:46:02;;;;;;;12.10;3.10;;;7.80;99.90;;;;;;5108679;27;20262;-72
2023/02/22 03:48:36;;;;;;;9.37;4.27;;;7.80;99.90;;;;;;5112408;27;20237;-72
2023/02/22 03:51:05;;;;;;;17.73;4.90;;;7.90;99.90;;;;;;5129283;27;20646;-72
2023/02/22 03:53:35;;;;;;;13.17;3.17;;;7.90;99.90;;;;;;5112096;27;20255;-73
2023/02/22 03:56:06;;;;;;;10.97;3.23;;;7.90;99.90;;;;;;5087202;28;20223;-72
2023/02/22 03:58:34;;;;;;;9.43;3.00;;;7.90;99.90;;;;;;5086812;28;20223;-72
2023/02/22 04:01:02;;;;;;;13.83;3.20;;;7.90;99.90;;;;;;5087623;28;20706;-72
2023/02/22 04:03:29;;;;;;;9.40;3.03;;;7.90;99.90;;;;;;5093813;28;20435;-72
2023/02/22 04:05:56;;;;;;;11.03;3.20;;;7.90;99.90;;;;;;5106782;28;20300;-72
2023/02/22 04:08:24;;;;;;;10.93;3.00;;;7.90;99.90;;;;;;5108006;28;20198;-72
2023/02/22 04:10:51;;;;;;;14.40;3.50;;;7.90;99.90;;;;;;5108949;28;20646;-72
2023/02/22 04:13:18;;;;;;;10.73;3.20;;;7.80;99.90;;;;;;5110036;28;20616;-72
2023/02/22 04:15:45;;;;;;;13.17;3.37;;;7.80;99.90;;;;;;5109185;28;20230;-72
2023/02/22 04:18:12;;;;;;;9.20;2.60;;;7.80;99.90;;;;;;5110979;27;20313;-72
2023/02/22 04:20:39;;;;;;;12.23;3.20;;;7.80;99.90;;;;;;5130492;27;20300;-72
2023/02/22 04:23:06;;;;;;;8.57;2.93;;;7.80;99.90;;;;;;5130009;27;20315;-72
2023/02/22 04:25:34;;;;;;;13.80;2.60;;;7.90;99.90;;;;;;5130255;27;20830;-72
2023/02/22 04:28:01;;;;;;;11.63;3.00;;;7.80;99.90;;;;;;5130169;27;20212;-72
2023/02/22 04:30:29;;;;;;;12.37;2.57;;;7.80;99.90;;;;;;5124828;27;20285;-72
2023/02/22 04:32:55;;;;;;;11.63;3.40;;;7.80;99.90;;;;;;5109283;28;20202;-72
2023/02/22 04:35:23;;;;;;;17.93;3.60;;;7.80;99.90;;;;;;5109662;28;20328;-72
2023/02/22 04:37:49;;;;;;;14.87;3.60;;;7.80;99.90;;;;;;5109062;28;20286;-72
2023/02/22 04:40:17;;;;;;;8.60;3.17;;;7.80;99.90;;;;;;5108255;28;20286;-72
2023/02/22 04:42:45;;;;;;;12.17;3.53;;;7.80;99.90;;;;;;5109245;28;20237;-72
2023/02/22 04:45:12;;;;;;;11.77;2.97;;;7.80;99.90;;;;;;5109324;28;20244;-72
2023/02/22 04:47:40;;;;;;;10.67;3.30;;;7.80;99.90;;;;;;5108865;28;20726;-72
2023/02/22 04:50:08;;;;;;;11.20;3.13;;;7.80;99.90;;;;;;5126653;27;20328;-72
2023/02/22 04:52:35;;;;;;;9.50;3.17;;;7.80;99.90;;;;;;5129251;27;20292;-71
2023/02/22 04:55:03;;;;;;;10.90;3.93;;;7.80;99.90;;;;;;5129296;27;20244;-72
2023/02/22 04:57:30;;;;;;;14.23;3.47;;;7.80;99.90;;;;;;5129311;27;20241;-71
2023/02/22 04:59:59;;;;;;;12.17;2.90;;;7.80;99.90;;;;;;5129441;27;20293;-71
2023/02/22 05:02:26;;;;;;;12.77;3.03;;;7.80;99.90;;;;;;5129367;27;20296;-71
2023/02/22 05:04:53;;;;;;;12.07;3.33;;;7.80;99.90;;;;;;5129059;27;20473;-71
2023/02/22 05:07:20;;;;;;;14.27;3.03;;;7.80;99.90;;;;;;5112253;27;20202;-72
2023/02/22 05:09:46;;;;;;;9.07;3.10;;;7.80;99.90;;;;;;5108368;28;20285;-72
2023/02/22 05:12:14;;;;;;;11.50;3.10;;;7.80;99.90;;;;;;5112710;27;20305;-72
2023/02/22 05:14:41;;;;;;;14.37;3.37;;;7.80;99.90;;;;;;5114235;27;20206;-72
2023/02/22 05:17:09;;;;;;;9.80;3.10;;;7.80;99.90;;;;;;5108248;28;20779;-72
2023/02/22 05:19:37;;;;;;;13.53;2.97;;;7.90;99.90;;;;;;5122295;27;20828;-72
2023/02/22 05:22:04;;;;;;;12.43;3.57;;;7.90;99.90;;;;;;5128857;27;20197;-72
2023/02/22 05:24:31;;;;;;;10.47;2.93;;;7.90;99.90;;;;;;5128562;27;20237;-72
2023/02/22 05:26:58;;;;;;;11.30;3.13;;;7.90;99.90;;;;;;5128683;27;20291;-72
2023/02/22 05:29:25;;;;;;;10.73;3.10;;;7.90;99.90;;;;;;5128669;27;20763;-72
2023/02/22 05:31:52;;;;;;;9.00;3.00;;;7.80;99.90;;;;;;5111926;27;20225;-72
2023/02/22 05:34:20;;;;;;;11.37;3.43;;;7.80;99.90;;;;;;5108074;28;20294;-72
2023/02/22 05:36:47;;;;;;;7.80;2.67;;;7.80;99.90;;;;;;5107873;28;20317;-72
2023/02/22 05:39:14;;;;;;;10.67;3.20;;;7.80;99.90;;;;;;5107856;28;20290;-72
2023/02/22 05:41:41;;;;;;;10.27;3.03;;;7.80;99.90;;;;;;5108182;28;20424;-72
2023/02/22 05:44:07;;;;;;;10.93;3.63;;;7.80;99.90;;;;;;5107758;28;20568;-72
2023/02/22 05:46:34;;;;;;;9.20;3.00;;;7.80;99.90;;;;;;5108158;28;20296;-72
2023/02/22 05:49:01;;;;;;;11.30;2.97;;;7.80;99.90;;;;;;5116286;27;21142;-72
2023/02/22 05:51:29;;;;;;;10.73;3.43;;;7.80;99.90;;;;;;5128185;27;20292;-71
2023/02/22 05:53:56;;;;;;;13.73;3.20;;;7.80;99.90;;;;;;5128233;27;20205;-71
2023/02/22 05:56:26;;;;;;;12.27;2.93;;;7.80;99.90;;;;;;5128471;27;20378;-71
2023/02/22 05:58:53;;;;;;;16.90;3.33;;;7.80;99.90;;;;;;5128188;27;20229;-72
2023/02/22 06:01:21;;;;;;;7.67;2.70;;;7.80;99.90;;;;;;5128573;27;20312;-71
2023/02/22 06:03:49;;;;;;;15.53;3.50;;;7.80;99.90;;;;;;5106118;27;20289;-71
2023/02/22 06:06:16;;;;;;;7.63;2.67;;;7.80;99.90;;;;;;5107717;28;20727;-71
2023/02/22 06:08:44;;;;;;;13.60;3.27;;;7.80;99.90;;;;;;5107385;28;20297;-72
2023/02/22 06:11:11;;;;;;;10.67;3.30;;;7.80;99.90;;;;;;5107403;28;20304;-71
2023/02/22 06:13:39;;;;;;;10.57;3.23;;;7.80;99.90;;;;;;5107719;28;20226;-72
2023/02/22 06:16:07;;;;;;;12.20;3.17;;;7.80;99.90;;;;;;5107870;28;20233;-72
2023/02/22 06:18:34;;;;;;;9.80;3.33;;;7.90;99.90;;;;;;5111465;28;20240;-71
2023/02/22 06:21:01;;;;;;;10.60;3.30;;;7.90;99.90;;;;;;5127638;27;20240;-71
2023/02/22 06:23:27;;;;;;;9.93;2.87;;;7.90;99.90;;;;;;5128070;27;20236;-71
2023/02/22 06:25:56;;;;;;;8.90;3.17;;;7.90;99.90;;;;;;5128109;27;20229;-72
2023/02/22 06:28:23;;;;;;;8.60;3.00;;;8.00;99.90;;;;;;5121448;27;20243;-71
2023/02/22 06:30:50;;;;;;;12.03;3.63;;;8.00;99.90;;;;;;5099526;28;20222;-72
2023/02/22 06:33:17;;;;;;;14.67;2.90;;;8.00;99.90;;;;;;5102229;28;20229;-71
2023/02/22 06:35:44;;;;;;;16.77;3.27;;;8.00;99.90;;;;;;5108048;28;20238;-71
2023/02/22 06:38:11;;;;;;;11.20;3.50;;;8.00;99.90;;;;;;5106976;28;20323;-72
2023/02/22 06:40:38;;;;;;;13.47;3.77;;;8.10;99.90;;;;;;5107727;28;20293;-72
2023/02/22 06:43:06;;;;;;;11.87;3.30;;;8.00;99.90;;;;;;5107224;28;20285;-71
2023/02/22 06:45:33;;;;;;;10.73;3.27;;;8.10;99.90;;;;;;5107712;28;20290;-71
2023/02/22 06:48:00;;;;;;;17.20;3.90;;;8.10;99.90;;;;;;5107239;28;20668;-71
2023/02/22 06:50:29;;;;;;;14.03;3.37;;;8.10;99.90;;;;;;5087222;28;20282;-71
2023/02/22 06:52:56;;;;;;;13.27;4.00;;;8.00;99.90;;;;;;5086354;28;20249;-71
2023/02/22 06:55:26;;;;;;;13.67;3.23;;;8.10;99.90;;;;;;5087198;28;20234;-71
2023/02/22 06:57:53;;;;;;;12.47;3.33;;;8.10;99.90;;;;;;5087116;28;20266;-72
2023/02/22 07:00:24;;;;;;;11.50;4.13;;;8.10;99.90;;;;;;5107197;28;20305;-72
2023/02/22 07:02:51;;;;;;;16.53;3.57;;;8.10;99.90;;;;;;5107842;28;20198;-72
2023/02/22 07:05:20;;;;;;;10.77;3.80;;;8.10;99.90;;;;;;5119802;27;20572;-71
2023/02/22 07:07:48;;;;;;;15.03;3.80;;;8.10;99.90;;;;;;5111244;27;20835;-72
2023/02/22 07:10:21;;;;;;;13.60;3.87;;;8.10;99.90;;;;;;5111077;28;20292;-72
2023/02/22 07:12:49;;;;;;;12.00;3.53;;;8.10;99.90;;;;;;5090671;28;20296;-72
2023/02/22 07:15:20;;;;;;;14.57;3.90;;;8.10;99.90;;;;;;5090532;28;20206;-71
2023/02/22 07:17:48;;;;;;;11.37;3.57;;;8.10;99.90;;;;;;5090411;28;20586;-71
2023/02/22 07:20:16;;;;;;;14.43;3.50;;;8.10;99.90;;;;;;5128788;27;20240;-71
2023/02/22 07:22:43;;;;;;;13.77;3.97;;;8.10;99.90;;;;;;5130648;27;20246;-71
2023/02/22 07:25:11;;;;;;;15.33;4.00;;;8.10;99.90;;;;;;5120078;27;20254;-71
2023/02/22 07:27:38;;;;;;;14.07;3.70;;;8.20;99.90;;;;;;5110422;28;20217;-71
2023/02/22 07:30:06;;;;;;;11.70;3.77;;;8.20;99.90;;;;;;5110266;28;20232;-72
2023/02/22 07:32:33;;;;;;;14.93;3.57;;;8.20;99.90;;;;;;5110605;28;20667;-71
2023/02/22 07:35:01;;;;;;;11.73;3.80;;;8.20;99.90;;;;;;5110362;28;20237;-71
2023/02/22 07:37:29;;;;;;;14.73;3.70;;;8.20;99.90;;;;;;5110316;28;20657;-71
2023/02/22 07:39:56;;;;;;;12.27;3.47;;;8.20;99.90;;;;;;5109940;28;20203;-72
2023/02/22 07:42:22;;;;;;;14.93;3.43;;;8.20;99.90;;;;;;5110030;28;20300;-72
2023/02/22 07:44:49;;;;;;;17.13;4.43;;;8.20;99.90;;;;;;5110424;28;20248;-72
2023/02/22 07:47:16;;;;;;;14.13;4.13;;;8.20;99.90;;;;;;5110284;28;20301;-71
2023/02/22 07:49:43;;;;;;;16.87;4.40;;;8.20;99.90;;;;;;5124574;27;20807;-71
2023/02/22 07:52:11;;;;;;;18.13;4.20;;;8.20;99.90;;;;;;5131033;27;20636;-71
2023/02/22 07:54:38;;;;;;;12.10;4.10;;;8.20;99.90;;;;;;5125667;27;20255;-72
2023/02/22 07:57:05;;;;;;;14.97;3.70;;;8.20;99.90;;;;;;5109849;28;20237;-72
2023/02/22 07:59:32;;;;;;;12.67;3.70;;;8.20;99.90;;;;;;5110378;28;20206;-72
2023/02/22 08:01:59;;;;;;;15.73;3.43;;;8.20;99.90;;;;;;5120208;27;20607;-71
2023/02/22 08:04:26;;;;;;;14.97;3.90;;;8.20;99.90;;;;;;5110177;28;20265;-71
2023/02/22 08:06:53;;;;;;;8.17;3.50;;;8.20;99.90;;;;;;5110009;28;20266;-71
2023/02/22 08:09:22;;;;;;;14.07;3.87;;;8.20;99.90;;;;;;5109819;28;20198;-71
2023/02/22 08:11:49;;;;;;;18.67;4.10;;;8.20;99.90;;;;;;5109778;28;20236;-71
2023/02/22 08:14:17;;;;;;;14.57;3.80;;;8.20;99.90;;;;;;5109486;28;20234;-72
2023/02/22 08:16:44;;;;;;;17.37;4.17;;;8.30;99.90;;;;;;5109861;28;20236;-73
2023/02/22 08:19:10;;;;;;;12.70;3.70;;;8.30;99.90;;;;;;5119203;27;20245;-73
2023/02/22 08:21:37;;;;;;;11.00;3.70;;;8.30;99.90;;;;;;5117211;27;20668;-73
2023/02/22 08:24:05;;;;;;;9.30;3.77;;;8.30;99.90;;;;;;5109047;28;20206;-73
2023/02/22 08:26:33;;;;;;;13.23;3.83;;;8.30;99.90;;;;;;5109465;28;20668;-73
2023/02/22 08:29:00;;;;;;;13.90;4.10;;;8.30;99.90;;;;;;5108969;28;20233;-73
2023/02/22 08:31:27;;;;;;;18.83;4.00;;;8.30;99.90;;;;;;5109438;27;20206;-72
2023/02/22 08:33:54;;;;;;;13.87;3.90;;;8.40;99.90;;;;;;5109231;28;20214;-73
2023/02/22 08:36:21;;;;;;;15.07;3.57;;;8.40;99.90;;;;;;5109283;28;20245;-73
2023/02/22 08:38:48;;;;;;;17.37;4.13;;;8.40;99.90;;;;;;5108916;28;20316;-73
2023/02/22 08:41:15;;;;;;;12.37;3.87;;;8.50;99.90;;;;;;5109516;28;20301;-73
2023/02/22 08:43:43;;;;;;;11.57;3.73;;;8.50;99.90;;;;;;5109332;28;20210;-73
2023/02/22 08:46:10;;;;;;;13.87;4.13;;;8.50;99.90;;;;;;5109124;27;20226;-73
2023/02/22 08:48:37;;;;;;;11.67;3.43;;;8.50;99.90;;;;;;5113985;27;20241;-73
2023/02/22 08:51:04;;;;;;;10.97;3.50;;;8.50;99.90;;;;;;5123273;27;20237;-73
2023/02/22 08:53:31;;;;;;;15.30;3.50;;;8.60;99.90;;;;;;5108564;28;20291;-73
2023/02/22 08:55:58;;;;;;;12.03;3.43;;;8.60;99.90;;;;;;5108851;28;20672;-73
2023/02/22 08:58:25;;;;;;;15.70;4.00;;;8.60;99.90;;;;;;5118842;27;20313;-73
2023/02/22 09:00:53;;;;;;;11.27;3.60;;;8.60;99.90;;;;;;5108704;28;20792;-73
2023/02/22 09:03:20;;;;;;;15.77;4.30;;;8.70;99.90;;;;;;5108921;28;20201;-73
2023/02/22 09:05:48;;;;;;;13.93;3.67;;;8.70;99.90;;;;;;5108871;28;20206;-73
2023/02/22 09:08:16;;;;;;;20.37;4.00;;;8.70;99.90;;;;;;5108459;28;20232;-73
2023/02/22 09:10:44;;;;;;;11.33;3.93;;;8.70;99.90;;;;;;5108891;28;20694;-73
2023/02/22 09:13:12;;;;;;;11.50;3.70;;;8.70;99.90;;;;;;5107996;28;20202;-72
2023/02/22 09:15:39;;;;;;;12.30;3.90;;;8.80;99.90;;;;;;5108205;28;20285;-73
2023/02/22 09:18:13;;;;;;;13.33;3.67;;;8.80;99.90;;;;;;5108122;27;20226;-73
2023/02/22 09:20:40;;;;;;;11.20;3.50;;;8.80;99.90;;;;;;5125739;27;20198;-73
2023/02/22 09:23:10;;;;;;;11.27;3.17;;;8.90;99.90;;;;;;5108022;28;20236;-73
2023/02/22 09:25:37;;;;;;;14.70;4.33;;;8.90;99.90;;;;;;5108191;28;20245;-73
2023/02/22 09:28:04;;;;;;;13.07;3.20;;;9.00;99.90;;;;;;5108315;28;20297;-73
2023/02/22 09:30:34;;;;;;;14.40;3.67;;;9.00;99.90;;;;;;5108233;28;20226;-73
2023/02/22 09:33:04;;;;;;;16.83;3.80;;;9.10;99.90;;;;;;5108233;28;20214;-73
2023/02/22 09:35:34;;;;;;;15.17;3.37;;;9.10;99.90;;;;;;5108594;28;20280;-73
2023/02/22 09:38:03;;;;;;;14.43;3.30;;;9.10;99.90;;;;;;5107684;28;20257;-73
2023/02/22 09:40:32;;;;;;;9.27;2.97;;;9.20;99.90;;;;;;5108225;28;20285;-73
2023/02/22 09:43:29;;;;;;;14.30;4.17;;;9.20;99.90;;;;;;5107818;28;20242;-72
2023/02/22 09:46:18;;;;;;;14.63;3.70;;;9.20;99.90;;;;;;5107495;28;20680;-72
2023/02/22 09:49:05;;;;;;;15.00;3.50;;;9.20;99.90;;;;;;5111597;27;20243;-72
2023/02/22 09:51:40;;;;;;;18.90;4.90;;;9.30;99.90;;;;;;5119005;27;20202;-72
2023/02/22 09:54:16;;;;;;;12.60;3.40;;;9.30;99.90;;;;;;5116905;27;20213;-73
2023/02/22 09:56:47;;;;;;;15.13;4.70;;;9.30;99.90;;;;;;5108379;28;20198;-72
2023/02/22 09:59:20;;;;;;;14.47;3.97;;;9.40;99.90;;;;;;5108234;28;20233;-72
2023/02/22 10:01:51;;;;;;;15.77;3.97;;;9.40;99.90;;;;;;5108205;27;21045;-72
2023/02/22 10:04:23;;;;;;;15.60;3.63;;;9.40;99.90;;;;;;5108168;28;20187;-73
2023/02/22 10:07:05;;;;;;;14.40;4.10;;;9.30;99.90;;;;;;5107936;28;20550;-72
2023/02/22 10:09:38;;;;;;;14.73;3.43;;;9.40;99.90;;;;;;5107877;28;20205;-72
2023/02/22 10:12:11;;;;;;;10.33;3.37;;;9.40;99.90;;;;;;5107423;28;20232;-72
2023/02/22 10:14:48;;;;;;;10.63;2.80;;;9.40;99.90;;;;;;5107578;28;20715;-72
2023/02/22 10:17:26;;;;;;;13.37;3.67;;;9.40;99.90;;;;;;5107741;28;20193;-73
2023/02/22 10:20:12;;;;;;;15.17;3.70;;;9.40;99.90;;;;;;5123533;28;20227;-72
2023/02/22 10:22:55;;;;;;;9.23;3.67;;;9.40;99.90;;;;;;5127690;27;20675;-72
2023/02/22 10:25:26;;;;;;;17.63;3.43;;;9.40;99.90;;;;;;5128373;27;20201;-72
2023/02/22 10:27:58;;;;;;;12.13;4.03;;;9.40;99.90;;;;;;5128161;27;20848;-72
2023/02/22 10:30:30;;;;;;;14.83;3.97;;;9.40;99.90;;;;;;5128409;27;20288;-72
2023/02/22 10:33:04;;;;;;;10.90;3.40;;;9.40;99.90;;;;;;5128287;27;20196;-72
2023/02/22 10:35:35;;;;;;;10.80;3.10;;;9.30;99.90;;;;;;5128533;27;20225;-72
2023/02/22 10:38:15;;;;;;;11.27;3.00;;;9.40;99.90;;;;;;5128623;27;20304;-72
2023/02/22 10:40:45;;;;;;;15.93;3.17;;;9.40;99.90;;;;;;5132466;27;20196;-72
2023/02/22 10:43:12;;;;;;;10.10;3.20;;;9.40;99.90;;;;;;5128936;27;20237;-72
2023/02/22 10:45:39;;;;;;;9.83;3.43;;;9.40;99.90;;;;;;5111709;28;20213;-72
2023/02/22 10:48:10;;;;;;;15.77;4.43;;;9.40;99.90;;;;;;5111610;27;20656;-72
2023/02/22 10:50:39;;;;;;;11.90;3.27;;;9.40;99.90;;;;;;5129576;27;20233;-72
2023/02/22 10:53:09;;;;;;;12.27;3.57;;;9.40;99.90;;;;;;5110785;28;20233;-72
2023/02/22 10:55:36;;;;;;;14.63;3.43;;;9.40;99.90;;;;;;5111383;27;20285;-72
2023/02/22 10:58:06;;;;;;;11.17;3.73;;;9.40;99.90;;;;;;5110550;28;20249;-72
2023/02/22 11:00:36;;;;;;;12.07;3.30;;;9.40;99.90;;;;;;5110806;28;20241;-72
2023/02/22 11:03:05;;;;;;;13.20;3.40;;;9.50;99.90;;;;;;5110636;28;20209;-72
2023/02/22 11:05:36;;;;;;;15.83;3.80;;;9.50;99.90;;;;;;5111197;28;20202;-72
2023/02/22 11:08:29;;;;;;;11.27;3.07;;;9.50;99.90;;;;;;5110643;27;20205;-72
2023/02/22 11:11:00;;;;;;;9.73;3.07;;;9.50;99.90;;;;;;5110993;28;20194;-72
2023/02/22 11:13:29;;;;;;;8.57;3.00;;;9.50;99.90;;;;;;5110902;28;20245;-72
2023/02/22 11:16:00;;;;;;;9.73;3.10;;;9.50;99.90;;;;;;5110596;28;20201;-72
2023/02/22 11:18:29;;;;;;;8.43;3.00;;;9.50;99.90;;;;;;5114547;27;20229;-72
2023/02/22 11:21:01;;;;;;;14.03;3.03;;;9.50;99.90;;;;;;5131344;27;20201;-72
2023/02/22 11:23:30;;;;;;;17.93;3.47;;;9.50;99.90;;;;;;5131090;27;20280;-72
2023/02/22 11:26:07;;;;;;;13.23;3.10;;;9.50;99.90;;;;;;5131220;27;20217;-72
2023/02/22 11:28:35;;;;;;;9.87;3.37;;;9.50;99.90;;;;;;5130912;27;20197;-72
2023/02/22 11:31:15;;;;;;;11.90;3.37;;;9.50;99.90;;;;;;5121240;27;20198;-72
2023/02/22 11:33:54;;;;;;;13.77;3.13;;;9.50;99.90;;;;;;5110763;28;20243;-72
2023/02/22 11:36:36;;;;;;;11.47;3.00;;;9.60;99.90;;;;;;5110823;28;20190;-72
2023/02/22 11:39:10;;;;;;;9.60;2.67;;;9.60;99.90;;;;;;5110330;28;20290;-72
2023/02/22 11:41:37;;;;;;;10.83;2.93;;;9.60;99.90;;;;;;5110655;28;20202;-72
2023/02/22 11:44:21;;;;;;;9.83;2.97;;;9.60;99.90;;;;;;5110479;28;20213;-72
2023/02/22 11:46:49;;;;;;;8.70;2.83;;;9.70;99.90;;;;;;5119538;27;20232;-72
2023/02/22 11:49:16;;;;;;;8.93;3.10;;;9.70;99.90;;;;;;5120160;27;20233;-72
2023/02/22 11:52:19;;;;;;;11.20;2.90;;;9.70;99.90;;;;;;5131091;27;20205;-72
2023/02/22 11:55:08;;;;;;;7.67;2.77;;;9.70;99.90;;;;;;5093337;27;20303;-72
2023/02/22 11:57:53;;;;;;;7.00;2.40;;;9.70;99.90;;;;;;5130592;27;20217;-72
2023/02/22 12:00:27;;;;;;;10.83;2.47;;;9.70;99.90;;;;;;5130714;27;20607;-72
2023/02/22 12:03:25;;;;;;;11.73;2.57;;;9.70;99.90;;;;;;5130583;27;20272;-72
2023/02/22 12:06:14;;;;;;;9.77;2.90;;;9.70;99.90;;;;;;5111566;27;20202;-72
2023/02/22 12:08:55;;;;;;;9.50;2.70;;;9.70;99.90;;;;;;5109247;28;20714;-72
2023/02/22 12:11:31;;;;;;;9.27;2.73;;;9.70;99.90;;;;;;5109932;28;20266;-72
2023/02/22 12:14:17;;;;;;;10.50;2.93;;;9.70;99.90;;;;;;5109558;27;20221;-72
2023/02/22 12:17:06;;;;;;;10.17;3.13;;;9.70;99.90;;;;;;5109703;28;20572;-72
2023/02/22 12:19:37;;;;;;;9.23;2.97;;;9.80;99.90;;;;;;5122725;27;20221;-72
2023/02/22 12:22:10;;;;;;;12.57;3.27;;;9.80;99.90;;;;;;5130368;27;20233;-72
2023/02/22 12:24:43;;;;;;;9.97;2.80;;;9.80;99.90;;;;;;5129720;27;20201;-72
2023/02/22 12:27:15;;;;;;;10.67;2.83;;;9.80;99.90;;;;;;5129922;27;20646;-72
2023/02/22 12:29:46;;;;;;;10.40;3.27;;;9.80;99.90;;;;;;5130072;27;20280;-72
2023/02/22 12:32:17;;;;;;;10.20;2.80;;;9.80;99.90;;;;;;5130099;27;20189;-73
2023/02/22 12:34:48;;;;;;;7.87;2.93;;;9.80;99.90;;;;;;5129778;27;20289;-72
2023/02/22 12:37:19;;;;;;;11.13;3.13;;;9.80;99.90;;;;;;5129584;27;20660;-72
2023/02/22 12:39:54;;;;;;;9.10;2.73;;;9.70;99.90;;;;;;5129522;27;20274;-72
2023/02/22 12:42:30;;;;;;;7.47;2.40;;;9.80;99.90;;;;;;5129650;27;20228;-72
2023/02/22 12:45:03;;;;;;;13.27;3.23;;;9.80;99.90;;;;;;5111495;27;20206;-72
2023/02/22 12:47:37;;;;;;;9.73;2.70;;;9.80;99.90;;;;;;5109219;28;20295;-72
2023/02/22 12:50:12;;;;;;;8.67;3.23;;;9.80;99.90;;;;;;5108463;28;20284;-72
2023/02/22 12:52:47;;;;;;;9.37;2.93;;;9.80;99.90;;;;;;5109165;28;20232;-72
2023/02/22 12:55:19;;;;;;;12.90;2.63;;;9.80;99.90;;;;;;5109010;28;20524;-72
2023/02/22 12:57:56;;;;;;;8.40;2.73;;;9.80;99.90;;;;;;5108972;28;20232;-72
2023/02/22 13:00:27;;;;;;;9.60;2.80;;;9.80;99.90;;;;;;5108376;28;20276;-72
2023/02/22 13:03:00;;;;;;;10.60;2.90;;;9.80;99.90;;;;;;5108553;27;20230;-72
2023/02/22 13:05:32;;;;;;;10.40;3.20;;;9.80;99.90;;;;;;5108709;28;20226;-72
2023/02/22 13:08:15;;;;;;;9.67;3.00;;;9.80;99.90;;;;;;5107859;28;20194;-72